createdAt,value
2023-04-28T00:01:23.990Z,9.53
2023-04-28T00:03:58.818Z,9.74
2023-04-28T00:06:32.183Z,10.04
2023-04-28T00:09:05.199Z,10.01
2023-04-28T00:11:38.053Z,9.93
2023-04-28T00:14:10.874Z,9.86
2023-04-28T00:16:45.184Z,9.77
2023-04-28T00:19:18.254Z,9.80
2023-04-28T00:21:51.227Z,9.65
2023-04-28T00:24:24.201Z,9.55
2023-04-28T00:26:58.410Z,9.59
2023-04-28T00:29:31.245Z,9.79
2023-04-28T00:32:05.457Z,9.59
2023-04-28T00:34:38.470Z,9.63
2023-04-28T00:37:11.553Z,9.38
2023-04-28T00:39:47.275Z,9.34
2023-04-28T00:42:20.562Z,9.46
2023-04-28T00:44:53.435Z,9.56
2023-04-28T00:47:27.652Z,9.36
2023-04-28T00:50:00.743Z,9.15
2023-04-28T00:52:33.781Z,9.16
2023-04-28T00:55:08.991Z,9.34
2023-04-28T00:57:42.529Z,9.18
2023-04-28T01:00:16.232Z,9.52
2023-04-28T01:02:51.239Z,9.92
2023-04-28T01:05:25.292Z,9.53
2023-04-28T01:07:58.404Z,9.31
2023-04-28T01:10:31.620Z,9.43
2023-04-28T01:13:04.393Z,9.06
2023-04-28T01:15:37.292Z,9.19
2023-04-28T01:18:11.517Z,9.09
2023-04-28T01:20:44.559Z,9.22
2023-04-28T01:23:18.158Z,9.48
2023-04-28T01:25:52.699Z,9.42
2023-04-28T01:28:25.703Z,9.23
2023-04-28T01:30:58.552Z,9.52
2023-04-28T01:33:31.314Z,9.61
2023-04-28T01:36:04.402Z,9.19
2023-04-28T01:38:37.683Z,9.11
2023-04-28T01:41:13.290Z,9.21
2023-04-28T01:43:46.277Z,9.33
2023-04-28T01:46:19.502Z,9.63
2023-04-28T01:48:52.330Z,9.61
2023-04-28T01:51:25.470Z,9.48
2023-04-28T01:53:58.480Z,9.56
2023-04-28T01:56:32.891Z,9.43
2023-04-28T01:59:05.729Z,9.39
2023-04-28T02:01:38.812Z,9.29
2023-04-28T02:04:11.748Z,9.24
2023-04-28T02:06:44.671Z,9.76
2023-04-28T02:09:17.663Z,9.32
2023-04-28T02:11:52.536Z,9.53
2023-04-28T02:14:25.378Z,9.50
2023-04-28T02:16:59.441Z,9.73
2023-04-28T02:19:32.581Z,9.82
2023-04-28T02:22:05.417Z,9.73
2023-04-28T02:24:38.724Z,9.49
2023-04-28T02:27:13.700Z,9.79
2023-04-28T02:29:46.775Z,9.88
2023-04-28T02:32:19.660Z,9.84
2023-04-28T02:34:54.170Z,9.81
2023-04-28T02:37:28.097Z,9.88
2023-04-28T02:40:01.395Z,9.95
2023-04-28T02:42:35.870Z,9.78
2023-04-28T02:45:09.274Z,9.59
2023-04-28T02:47:42.206Z,9.72
2023-04-28T02:50:15.221Z,9.51
2023-04-28T02:52:49.188Z,9.74
2023-04-28T02:55:24.338Z,10.06
2023-04-28T02:57:58.968Z,9.72
2023-04-28T03:00:31.923Z,10.12
2023-04-28T03:03:05.287Z,9.82
2023-04-28T03:05:38.222Z,9.68
2023-04-28T03:08:11.522Z,9.60
2023-04-28T03:10:44.635Z,9.94
2023-04-28T03:13:19.073Z,9.92
2023-04-28T03:15:52.585Z,9.68
2023-04-28T03:18:25.531Z,9.50
2023-04-28T03:20:58.665Z,9.63
2023-04-28T03:23:31.667Z,10.01
2023-04-28T03:26:04.917Z,9.98
2023-04-28T03:28:39.400Z,9.98
2023-04-28T03:31:12.211Z,9.73
2023-04-28T03:33:47.168Z,9.51
2023-04-28T03:36:20.008Z,9.77
2023-04-28T03:38:52.681Z,9.34
2023-04-28T03:41:26.231Z,9.27
2023-04-28T03:44:00.645Z,9.61
2023-04-28T03:46:34.752Z,9.50
2023-04-28T03:49:07.630Z,9.73
2023-04-28T03:51:40.424Z,9.34
2023-04-28T03:54:13.713Z,9.38
2023-04-28T03:56:46.917Z,9.53
2023-04-28T03:59:21.200Z,9.26
2023-04-28T04:01:54.030Z,9.48
2023-04-28T04:04:27.328Z,9.52
2023-04-28T04:07:00.711Z,9.96
2023-04-28T04:09:34.462Z,9.99
2023-04-28T04:12:07.909Z,10.15
2023-04-28T04:14:42.306Z,9.86
2023-04-28T04:17:15.157Z,10.03
2023-04-28T04:19:48.080Z,9.82
2023-04-28T04:22:20.852Z,9.58
2023-04-28T04:24:53.617Z,9.89
2023-04-28T04:27:26.722Z,9.85
2023-04-28T04:30:01.427Z,9.86
2023-04-28T04:32:35.035Z,9.41
2023-04-28T04:35:09.537Z,9.47
2023-04-28T04:37:42.313Z,9.69
2023-04-28T04:40:15.324Z,9.68
2023-04-28T04:42:48.765Z,9.34
2023-04-28T04:45:23.187Z,9.32
2023-04-28T04:47:56.869Z,9.49
2023-04-28T04:50:29.942Z,9.41
2023-04-28T04:53:02.813Z,9.49
2023-04-28T04:55:35.831Z,9.78
2023-04-28T04:58:09.004Z,9.65
2023-04-28T05:00:43.736Z,10.06
2023-04-28T05:03:26.814Z,9.88
2023-04-28T05:06:00.469Z,9.57
2023-04-28T05:08:33.524Z,9.67
2023-04-28T05:11:06.685Z,9.35
2023-04-28T05:13:40.670Z,9.27
2023-04-28T05:16:15.060Z,10.13
2023-04-28T05:18:47.807Z,10.43
2023-04-28T05:21:20.703Z,10.06
2023-04-28T05:23:53.913Z,10.24
2023-04-28T05:26:27.389Z,10.06
2023-04-28T05:29:00.429Z,9.86
2023-04-28T05:31:35.024Z,9.89
2023-04-28T05:34:07.975Z,9.88
2023-04-28T05:36:40.989Z,9.66
2023-04-28T05:39:14.068Z,9.39
2023-04-28T05:41:47.177Z,10.11
2023-04-28T05:44:20.422Z,10.01
2023-04-28T05:46:54.799Z,9.82
2023-04-28T05:49:27.991Z,9.91
2023-04-28T05:52:01.015Z,9.76
2023-04-28T05:54:34.666Z,9.82
2023-04-28T05:57:08.236Z,9.81
2023-04-28T05:59:41.105Z,10.15
2023-04-28T06:02:15.336Z,10.14
2023-04-28T06:04:48.673Z,9.72
2023-04-28T06:07:21.667Z,9.91
2023-04-28T06:09:54.509Z,10.01
2023-04-28T06:12:27.895Z,10.05
2023-04-28T06:15:01.419Z,9.87
2023-04-28T06:17:35.640Z,9.87
2023-04-28T06:20:10.800Z,9.92
2023-04-28T06:22:43.776Z,10.08
2023-04-28T06:25:16.657Z,10.38
2023-04-28T06:27:49.805Z,10.50
2023-04-28T06:30:23.535Z,10.45
2023-04-28T06:32:58.742Z,10.35
2023-04-28T06:35:31.747Z,10.51
2023-04-28T06:38:04.840Z,10.12
2023-04-28T06:40:38.139Z,10.23
2023-04-28T06:43:11.227Z,10.26
2023-04-28T06:45:44.250Z,10.02
2023-04-28T06:48:19.708Z,9.92
2023-04-28T06:50:52.877Z,10.29
2023-04-28T06:53:25.658Z,10.11
2023-04-28T06:55:58.793Z,10.24
2023-04-28T06:58:32.150Z,10.06
2023-04-28T07:01:05.934Z,10.50
2023-04-28T07:03:40.779Z,10.54
2023-04-28T07:06:14.072Z,11.08
2023-04-28T07:08:47.023Z,11.30
2023-04-28T07:11:20.057Z,11.03
2023-04-28T07:13:53.334Z,10.86
2023-04-28T07:16:26.987Z,10.45
2023-04-28T07:19:01.540Z,10.59
2023-04-28T07:21:34.676Z,10.92
2023-04-28T07:24:08.107Z,10.89
2023-04-28T07:26:41.235Z,10.88
2023-04-28T07:29:15.598Z,11.12
2023-04-28T07:31:48.676Z,11.45
2023-04-28T07:34:23.098Z,11.20
2023-04-28T07:36:55.927Z,11.47
2023-04-28T07:39:28.805Z,11.64
2023-04-28T07:42:02.686Z,11.20
2023-04-28T07:44:36.057Z,11.51
2023-04-28T07:47:09.711Z,11.47
2023-04-28T07:49:44.037Z,11.63
2023-04-28T07:52:17.421Z,11.87
2023-04-28T07:54:50.311Z,12.11
2023-04-28T07:57:23.203Z,11.89
2023-04-28T07:59:56.567Z,11.98
2023-04-28T08:02:29.665Z,11.59
2023-04-28T08:05:04.497Z,11.81
2023-04-28T08:07:38.202Z,11.90
2023-04-28T08:10:13.706Z,11.89
2023-04-28T08:12:46.752Z,11.95
2023-04-28T08:15:20.118Z,12.18
2023-04-28T08:17:53.225Z,12.30
2023-04-28T08:20:27.425Z,12.21
2023-04-28T08:23:00.979Z,12.23
2023-04-28T08:25:37.052Z,12.15
2023-04-28T08:28:10.364Z,11.96
2023-04-28T08:30:43.295Z,12.15
2023-04-28T08:33:16.468Z,12.13
2023-04-28T08:35:50.734Z,12.31
2023-04-28T08:38:25.230Z,12.26
2023-04-28T08:40:58.151Z,12.08
2023-04-28T08:43:33.693Z,12.40
2023-04-28T08:46:07.079Z,12.69
2023-04-28T08:48:41.284Z,12.84
2023-04-28T08:51:18.054Z,12.78
2023-04-28T08:56:33.028Z,12.96
2023-04-28T08:59:07.001Z,12.89
2023-04-28T09:01:40.087Z,12.04
2023-04-28T09:04:14.679Z,12.21
2023-04-28T09:06:49.841Z,12.48
2023-04-28T09:09:25.312Z,12.86
2023-04-28T09:11:59.706Z,12.57
2023-04-28T09:14:34.875Z,12.53
2023-04-28T09:17:13.084Z,12.51
2023-04-28T09:19:46.494Z,12.51
2023-04-28T09:22:29.272Z,12.68
2023-04-28T09:25:11.910Z,13.18
2023-04-28T09:27:46.974Z,13.07
2023-04-28T09:30:20.365Z,12.95
2023-04-28T09:33:05.213Z,12.83
2023-04-28T09:35:42.309Z,12.74
2023-04-28T09:38:16.547Z,12.79
2023-04-28T09:40:53.517Z,12.72
2023-04-28T09:43:30.747Z,12.77
2023-04-28T09:46:04.620Z,12.82
2023-04-28T09:48:38.858Z,12.89
2023-04-28T09:51:13.180Z,12.62
2023-04-28T09:53:47.716Z,13.04
2023-04-28T09:56:22.216Z,13.12
2023-04-28T09:58:55.302Z,13.57
2023-04-28T10:01:28.817Z,13.58
2023-04-28T10:04:12.104Z,13.77
2023-04-28T10:06:45.791Z,13.93
2023-04-28T10:09:26.523Z,13.93
2023-04-28T10:11:59.902Z,13.37
2023-04-28T10:14:33.427Z,13.37
2023-04-28T10:17:06.748Z,13.45
2023-04-28T10:19:39.604Z,13.75
2023-04-28T10:22:23.537Z,13.87
2023-04-28T10:25:09.876Z,13.92
2023-04-28T10:27:43.726Z,13.82
2023-04-28T10:30:27.554Z,14.29
2023-04-28T10:33:20.339Z,14.27
2023-04-28T10:35:53.489Z,13.54
2023-04-28T10:38:26.325Z,13.86
2023-04-28T10:41:02.838Z,14.07
2023-04-28T10:43:39.938Z,14.03
2023-04-28T10:46:13.538Z,13.81
2023-04-28T10:48:56.776Z,13.79
2023-04-28T10:51:31.922Z,13.94
2023-04-28T10:54:19.959Z,14.25
2023-04-28T10:57:12.113Z,14.55
2023-04-28T10:59:48.019Z,14.29
2023-04-28T11:02:47.099Z,14.19
2023-04-28T11:05:20.830Z,14.61
2023-04-28T11:08:12.515Z,14.08
2023-04-28T11:11:13.133Z,14.39
2023-04-28T11:13:47.167Z,14.49
2023-04-28T11:16:24.164Z,14.29
2023-04-28T11:18:59.263Z,14.22
2023-04-28T11:21:33.089Z,13.86
2023-04-28T11:24:10.653Z,14.02
2023-04-28T11:26:43.784Z,14.04
2023-04-28T11:29:17.321Z,14.55
2023-04-28T11:31:52.788Z,14.69
2023-04-28T11:34:26.008Z,14.55
2023-04-28T11:36:59.528Z,14.54
2023-04-28T11:39:33.505Z,14.41
2023-04-28T11:42:11.129Z,14.63
2023-04-28T11:44:50.668Z,13.98
2023-04-28T11:47:33.715Z,14.17
2023-04-28T11:50:08.325Z,14.40
2023-04-28T11:52:50.830Z,14.05
2023-04-28T11:55:25.533Z,14.07
2023-04-28T11:58:14.233Z,14.48
2023-04-28T12:00:47.317Z,14.28
2023-04-28T12:03:21.687Z,14.21
2023-04-28T12:05:54.901Z,14.02
2023-04-28T12:08:29.267Z,14.48
2023-04-28T12:11:08.592Z,14.04
2023-04-28T12:13:41.462Z,14.14
2023-04-28T12:16:14.548Z,14.42
2023-04-28T12:19:00.771Z,14.19
2023-04-28T12:21:33.762Z,14.42
2023-04-28T12:24:19.736Z,14.65
2023-04-28T12:26:53.214Z,14.47
2023-04-28T12:29:42.183Z,14.05
2023-04-28T12:32:16.080Z,14.29
2023-04-28T12:34:51.414Z,14.61
2023-04-28T12:37:24.748Z,14.54
2023-04-28T12:39:57.732Z,14.69
2023-04-28T12:42:30.729Z,14.69
2023-04-28T12:45:03.541Z,14.64
2023-04-28T12:47:36.604Z,14.92
2023-04-28T12:50:11.376Z,14.73
2023-04-28T12:52:44.526Z,14.61
2023-04-28T12:55:17.768Z,15.23
2023-04-28T12:57:50.566Z,14.72
2023-04-28T13:00:25.160Z,14.84
2023-04-28T13:02:58.237Z,14.56
2023-04-28T13:05:35.040Z,14.89
2023-04-28T13:08:08.342Z,15.01
2023-04-28T13:10:41.640Z,15.05
2023-04-28T13:13:14.507Z,15.15
2023-04-28T13:15:47.608Z,15.14
2023-04-28T13:18:20.575Z,15.01
2023-04-28T13:20:55.134Z,14.95
2023-04-28T13:23:28.428Z,15.21
2023-04-28T13:26:01.431Z,15.25
2023-04-28T13:28:34.508Z,15.19
2023-04-28T13:31:07.314Z,15.01
2023-04-28T13:33:40.204Z,15.11
2023-04-28T13:36:14.416Z,15.35
2023-04-28T13:38:49.101Z,15.21
2023-04-28T13:41:22.363Z,15.01
2023-04-28T13:43:55.772Z,14.88
2023-04-28T13:46:29.035Z,15.15
2023-04-28T13:49:01.903Z,15.22
2023-04-28T13:51:36.786Z,15.15
2023-04-28T13:54:11.672Z,15.39
2023-04-28T13:56:44.904Z,14.94
2023-04-28T13:59:17.913Z,14.79
2023-04-28T14:01:51.851Z,15.13
2023-04-28T14:04:25.246Z,15.45
2023-04-28T14:07:00.052Z,15.15
2023-04-28T14:09:33.416Z,15.08
2023-04-28T14:12:06.342Z,15.30
2023-04-28T14:14:40.440Z,15.31
2023-04-28T14:17:13.725Z,15.45
2023-04-28T14:19:46.855Z,15.15
2023-04-28T14:22:21.436Z,15.05
2023-04-28T14:24:54.589Z,14.85
2023-04-28T14:27:28.236Z,15.25
2023-04-28T14:30:01.157Z,15.24
2023-04-28T14:32:34.265Z,15.30
2023-04-28T14:35:07.423Z,15.37
2023-04-28T14:37:42.874Z,15.34
2023-04-28T14:40:16.618Z,14.85
2023-04-28T14:42:49.389Z,14.93
2023-04-28T14:45:22.782Z,15.41
2023-04-28T14:47:55.717Z,15.13
2023-04-28T14:50:28.469Z,15.34
2023-04-28T14:53:05.629Z,14.74
2023-04-28T14:55:38.868Z,14.93
2023-04-28T14:58:12.314Z,15.22
2023-04-28T15:00:45.236Z,14.97
2023-04-28T15:03:19.386Z,15.15
2023-04-28T15:05:53.657Z,14.82
2023-04-28T15:08:29.943Z,15.29
2023-04-28T15:11:02.934Z,14.98
2023-04-28T15:13:36.055Z,14.87
2023-04-28T15:16:09.170Z,14.87
2023-04-28T15:18:42.447Z,14.84
2023-04-28T15:21:15.502Z,15.17
2023-04-28T15:23:49.996Z,14.87
2023-04-28T15:26:23.623Z,14.72
2023-04-28T15:28:56.632Z,14.87
2023-04-28T15:31:29.446Z,14.86
2023-04-28T15:34:02.388Z,14.72
2023-04-28T15:36:38.190Z,15.09
2023-04-28T15:39:12.795Z,15.28
2023-04-28T15:41:45.617Z,14.97
2023-04-28T15:44:18.561Z,14.73
2023-04-28T15:46:52.888Z,14.89
2023-04-28T15:49:26.076Z,14.77
2023-04-28T15:51:59.600Z,14.42
2023-04-28T15:54:34.031Z,14.53
2023-04-28T15:57:07.000Z,14.80
2023-04-28T15:59:41.141Z,14.73
2023-04-28T16:02:14.581Z,14.91
2023-04-28T16:04:49.065Z,14.83
2023-04-28T16:07:22.659Z,14.69
2023-04-28T16:09:56.922Z,14.93
2023-04-28T16:12:30.364Z,14.69
2023-04-28T16:15:03.512Z,14.75
2023-04-28T16:17:38.258Z,14.51
2023-04-28T16:20:12.850Z,14.76
2023-04-28T16:22:46.870Z,15.08
2023-04-28T16:25:21.214Z,14.82
2023-04-28T16:27:54.312Z,14.74
2023-04-28T16:30:27.312Z,14.37
2023-04-28T16:33:00.975Z,14.54
2023-04-28T16:35:34.155Z,14.41
2023-04-28T16:38:07.301Z,14.49
2023-04-28T16:40:41.471Z,14.41
2023-04-28T16:43:14.328Z,14.45
2023-04-28T16:45:47.154Z,14.25
2023-04-28T16:48:21.644Z,14.41
2023-04-28T16:50:54.926Z,14.34
2023-04-28T16:53:27.891Z,14.52
2023-04-28T16:56:02.079Z,14.18
2023-04-28T16:58:35.369Z,14.49
2023-04-28T17:01:08.897Z,13.87
2023-04-28T17:03:42.354Z,13.88
2023-04-28T17:06:15.749Z,14.44
2023-04-28T17:08:48.925Z,14.19
2023-04-28T17:11:23.082Z,13.70
2023-04-28T17:13:55.957Z,14.27
2023-04-28T17:16:31.890Z,13.95
2023-04-28T17:19:05.515Z,13.88
2023-04-28T17:21:38.983Z,13.88
2023-04-28T17:24:11.994Z,13.99
2023-04-28T17:26:46.252Z,14.14
2023-04-28T17:29:19.130Z,14.01
2023-04-28T17:31:52.196Z,13.67
2023-04-28T17:34:25.138Z,13.32
2023-04-28T17:36:58.317Z,13.81
2023-04-28T17:39:31.784Z,14.01
2023-04-28T17:42:06.630Z,13.67
2023-04-28T17:44:40.528Z,13.71
2023-04-28T17:47:15.123Z,13.61
2023-04-28T17:49:49.496Z,13.58
2023-04-28T17:52:22.569Z,13.03
2023-04-28T17:54:55.525Z,12.92
2023-04-28T17:57:29.682Z,12.46
2023-04-28T18:00:03.398Z,13.09
2023-04-28T18:02:36.243Z,12.94
2023-04-28T18:05:09.512Z,12.24
2023-04-28T18:07:42.853Z,12.75
2023-04-28T18:10:16.648Z,12.31
2023-04-28T18:12:53.008Z,12.74
2023-04-28T18:15:26.603Z,12.38
2023-04-28T18:17:59.849Z,11.93
2023-04-28T18:20:33.367Z,11.92
2023-04-28T18:23:07.730Z,12.16
2023-04-28T18:25:41.116Z,12.30
2023-04-28T18:28:15.454Z,12.05
2023-04-28T18:30:47.232Z,11.82
2023-04-28T18:33:23.011Z,11.71
2023-04-28T18:35:59.823Z,11.51
2023-04-28T18:38:35.170Z,11.13
2023-04-28T18:41:14.406Z,11.56
2023-04-28T18:43:49.500Z,11.48
2023-04-28T18:46:22.882Z,11.50
2023-04-28T18:48:55.864Z,11.55
2023-04-28T18:51:28.768Z,11.46
2023-04-28T18:54:04.665Z,11.61
2023-04-28T18:56:37.918Z,11.40
2023-04-28T18:59:12.424Z,11.51
2023-04-28T19:01:45.709Z,11.82
2023-04-28T19:04:19.123Z,12.11
2023-04-28T19:06:52.059Z,11.27
2023-04-28T19:09:25.034Z,11.52
2023-04-28T19:11:57.889Z,12.14
2023-04-28T19:14:33.330Z,12.03
2023-04-28T19:17:06.821Z,11.82
2023-04-28T19:19:39.920Z,12.22
2023-04-28T19:22:27.911Z,12.27
2023-04-28T19:25:01.324Z,11.71
2023-04-28T19:27:35.567Z,11.42
2023-04-28T19:30:10.988Z,11.07
2023-04-28T19:32:44.100Z,10.88
2023-04-28T19:35:16.951Z,11.39
2023-04-28T19:37:50.582Z,11.24
2023-04-28T19:40:26.347Z,11.36
2023-04-28T19:43:00.282Z,11.58
2023-04-28T19:45:36.245Z,11.41
2023-04-28T19:48:09.449Z,11.43
2023-04-28T19:50:42.501Z,11.08
2023-04-28T19:53:15.926Z,11.19
2023-04-28T19:55:48.905Z,11.10
2023-04-28T19:58:22.467Z,10.82
2023-04-28T20:00:56.894Z,10.48
2023-04-28T20:03:30.027Z,10.86
2023-04-28T20:06:03.904Z,10.38
2023-04-28T20:08:37.159Z,10.78
2023-04-28T20:11:10.413Z,11.42
2023-04-28T20:13:43.506Z,11.71
2023-04-28T20:16:20.305Z,11.13
2023-04-28T20:18:53.116Z,10.49
2023-04-28T20:21:27.622Z,10.49
2023-04-28T20:24:00.892Z,11.00
2023-04-28T20:26:33.652Z,10.10
2023-04-28T20:29:08.386Z,9.90
2023-04-28T20:31:43.025Z,9.73
2023-04-28T20:34:16.156Z,10.21
2023-04-28T20:36:49.439Z,9.99
2023-04-28T20:39:22.722Z,10.04
2023-04-28T20:41:56.122Z,10.07
2023-04-28T20:44:29.065Z,10.22
2023-04-28T20:47:03.651Z,9.93
2023-04-28T20:49:36.776Z,9.79
2023-04-28T20:52:09.849Z,9.76
2023-04-28T20:54:43.855Z,9.66
2023-04-28T20:57:16.645Z,9.90
2023-04-28T20:59:49.529Z,9.79
2023-04-28T21:02:23.966Z,9.13
2023-04-28T21:04:57.524Z,9.11
2023-04-28T21:07:30.671Z,9.41
2023-04-28T21:10:04.202Z,9.22
2023-04-28T21:12:37.477Z,9.21
2023-04-28T21:15:10.993Z,9.22
2023-04-28T21:17:45.346Z,9.22
2023-04-28T21:20:18.217Z,9.30
2023-04-28T21:22:51.499Z,9.11
2023-04-28T21:25:25.253Z,9.13
2023-04-28T21:28:00.236Z,9.21
2023-04-28T21:30:34.428Z,9.39
2023-04-28T21:33:08.770Z,9.81
2023-04-28T21:35:41.708Z,9.92
2023-04-28T21:38:15.620Z,9.27
2023-04-28T21:40:49.251Z,9.23
2023-04-28T21:43:22.881Z,9.19
2023-04-28T21:45:55.854Z,9.77
2023-04-28T21:48:30.236Z,9.40
2023-04-28T21:51:03.306Z,9.89
2023-04-28T21:53:36.324Z,9.11
2023-04-28T21:56:09.571Z,8.67
2023-04-28T21:58:42.496Z,8.67
2023-04-28T22:01:18.159Z,8.71
2023-04-28T22:03:52.723Z,8.67
2023-04-28T22:06:26.301Z,8.51
2023-04-28T22:08:59.881Z,8.51
2023-04-28T22:11:33.401Z,8.52
2023-04-28T22:14:06.503Z,8.54
2023-04-28T22:16:39.380Z,8.48
2023-04-28T22:19:13.727Z,8.46
2023-04-28T22:21:46.729Z,8.39
2023-04-28T22:24:19.941Z,8.19
2023-04-28T22:26:53.045Z,8.26
2023-04-28T22:29:26.792Z,7.95
2023-04-28T22:31:59.822Z,8.06
2023-04-28T22:34:34.007Z,8.11
2023-04-28T22:37:07.118Z,8.12
2023-04-28T22:39:40.302Z,8.10
2023-04-28T22:42:13.610Z,8.08
2023-04-28T22:44:46.510Z,8.13
2023-04-28T22:47:19.408Z,8.68
2023-04-28T22:49:53.584Z,8.19
2023-04-28T22:52:26.578Z,8.57
2023-04-28T22:54:59.654Z,8.21
2023-04-28T22:57:32.687Z,7.78
2023-04-28T23:00:06.051Z,7.97
2023-04-28T23:02:39.035Z,7.75
2023-04-28T23:05:13.822Z,7.84
2023-04-28T23:07:46.840Z,7.85
2023-04-28T23:10:20.151Z,7.67
2023-04-28T23:12:53.072Z,7.78
2023-04-28T23:15:26.269Z,7.91
2023-04-28T23:17:59.382Z,7.81
2023-04-28T23:20:35.289Z,7.26
2023-04-28T23:23:08.067Z,7.46
2023-04-28T23:25:42.025Z,7.50
2023-04-28T23:28:15.234Z,7.93
2023-04-28T23:30:48.438Z,7.58
2023-04-28T23:33:21.283Z,7.45
2023-04-28T23:35:55.859Z,7.57
2023-04-28T23:38:29.044Z,7.54
2023-04-28T23:41:02.245Z,7.41
2023-04-28T23:43:35.116Z,7.67
2023-04-28T23:46:08.086Z,7.34
2023-04-28T23:48:41.019Z,7.12
2023-04-28T23:51:15.185Z,7.21
2023-04-28T23:53:48.260Z,7.28
2023-04-28T23:56:21.688Z,6.87
2023-04-28T23:58:54.886Z,7.07
